KRDR/RDR METAR and TAF weather

Enter ICAO airport designator
Station Type Date Time Source
KRDR METAR 2019/10/18 10:56 UTC NOAA

KRDR 181056Z AUTO 13006KT 10SM CLR 07/05 A2947 RMK AO2 SLP988 T00650050 $


Station Type Date Time Source
KRDR Decoded METAR 2019/10/18 10:56 UTC NOAA

Grand Forks Air Force Base, ND, United States (KRDR) 47-58N 097-24W 278M
Oct 18, 2019 - 06:56 AM EDT / 2019.10.18 1056 UTC
Wind: from the SE (130 degrees) at 7 MPH (6 KT):0
Visibility: 10 mile(s):0
Sky conditions: clear
Temperature: 43.7 F (6.5 C)
Dew Point: 41.0 F (5.0 C)
Relative Humidity: 90%
Pressure (altimeter): 29.47 in. Hg (997 hPa)
ob: KRDR 181056Z AUTO 13006KT 10SM CLR 07/05 A2947 RMK AO2 SLP988 T00650050
cycle: 11

Station Type Date Time Source
KRDR TAF 2019/10/18 10:09 UTC NOAA

TAF KRDR 181000Z 1810/1916 15012KT 9999 SCT150 WS020/18045KT QNH2939INS
BECMG 1815/1816 18010KT 9999 SCT020 QNH2940INS
BECMG 1821/1822 21007KT 9999 BKN020 QNH2941INS
BECMG 1903/1904 26010KT 9999 SCT020 BKN100 QNH2950INS
BECMG 1905/1906 28010KT 9999 BKN100 QNH2951INS
BECMG 1906/1907 26008KT 9999 SKC QNH2952INS TX13/1819Z TN07/1909Z

Example: see airport list